Check out our new PWSWeather beta!
PWSweather.com
Personal Weather Stations
Station Observations

SkegnessGB

Lat: 53.147585, Lon: 0.345774

Elevation: 18

Station Type: Fine Offset WH3080

http://www.skegnessweather.info/

High Low Average
Temperature 47.7°F8.7°C 32.5°F0.3°C 40.3°F4.6°C
Dew Point 42.6°F5.9°C 29.4°F-1.4°C 37.1°F2.8°C
Winds 19.5 mph 31.4 kmh 2.1 mph 3.4 kmh 7.0 mph S11.3 kmh S
Wind Gusts 19.2 mph30.9 kmh 3.4 mph5.5 kmh 9.0 mph14.5 kmh
Humidity 93% 78% 89%
Pressure 29.81 in1009.5 mb 29.54 in1000.3 mb -
Precipitation 0.04 in1.0 mm - -
Hour Temp Dew Point Humidity Winds Wind Gusts Pressure Precip Precip Rate Daily Precip Total
12:00 AM 32.5°F0.3°C 29.4°F-1.4°C 88% 4.7 mph S7.6 kmh S 4.9 mph7.9 kmh 29.67 in1004.7 mb 0.00 in0.0 mm 0.00 in0.0 mm 0.00 in0.0 mm
12:10 AM 32.7°F0.4°C 29.6°F-1.3°C 88% 2.9 mph SSW4.7 kmh SSW 4.2 mph6.8 kmh 29.67 in1004.7 mb 0.00 in0.0 mm 0.00 in0.0 mm 0.00 in0.0 mm
12:20 AM 32.7°F0.4°C 29.6°F-1.3°C 88% 3.4 mph SSW5.5 kmh SSW 4.2 mph6.8 kmh 29.67 in1004.7 mb 0.00 in0.0 mm 0.00 in0.0 mm 0.00 in0.0 mm
12:30 AM 32.9°F0.5°C 29.7°F-1.3°C 88% 3.9 mph SW6.3 kmh SW 5.9 mph9.5 kmh 29.68 in1005.1 mb 0.00 in0.0 mm 0.00 in0.0 mm 0.00 in0.0 mm
12:40 AM 32.9°F0.5°C 29.7°F-1.3°C 88% 5.2 mph SW8.4 kmh SW 5.9 mph9.5 kmh 29.68 in1005.1 mb 0.00 in0.0 mm 0.00 in0.0 mm 0.00 in0.0 mm
12:50 AM 32.9°F0.5°C 29.7°F-1.3°C 88% 5.5 mph WSW8.9 kmh WSW 7.6 mph12.2 kmh 29.68 in1005.1 mb 0.00 in0.0 mm 0.00 in0.0 mm 0.00 in0.0 mm
01:00 AM 33.1°F0.6°C 30.2°F-1.0°C 89% 4.5 mph SW7.2 kmh SW 5.9 mph9.5 kmh 29.68 in1005.1 mb 0.00 in0.0 mm 0.00 in0.0 mm 0.00 in0.0 mm
01:10 AM 33.3°F0.7°C 30.4°F-0.9°C 89% 6.3 mph S10.1 kmh S 5.9 mph9.5 kmh 29.69 in1005.4 mb 0.00 in0.0 mm 0.00 in0.0 mm 0.00 in0.0 mm
01:20 AM 33.4°F0.8°C 30.5°F-0.8°C 89% 3.4 mph SW5.5 kmh SW 4.9 mph7.9 kmh 29.70 in1005.8 mb 0.00 in0.0 mm 0.00 in0.0 mm 0.00 in0.0 mm
01:30 AM 33.4°F0.8°C 30.5°F-0.8°C 89% 4.6 mph S7.4 kmh S 6.6 mph10.6 kmh 29.70 in1005.8 mb 0.00 in0.0 mm 0.00 in0.0 mm 0.00 in0.0 mm
01:40 AM 33.6°F0.9°C 30.7°F-0.7°C 89% 4.8 mph S7.7 kmh S 6.6 mph10.6 kmh 29.70 in1005.8 mb 0.00 in0.0 mm 0.00 in0.0 mm 0.00 in0.0 mm
01:50 AM 33.6°F0.9°C 30.7°F-0.7°C 89% 5.1 mph SW8.2 kmh SW 6.6 mph10.6 kmh 29.70 in1005.8 mb 0.00 in0.0 mm 0.00 in0.0 mm 0.00 in0.0 mm
02:00 AM 33.6°F0.9°C 30.7°F-0.7°C 89% 2.8 mph SSW4.5 kmh SSW 4.9 mph7.9 kmh 29.70 in1005.8 mb 0.00 in0.0 mm 0.00 in0.0 mm 0.00 in0.0 mm
02:10 AM 33.6°F0.9°C 30.7°F-0.7°C 89% 3.4 mph S5.5 kmh S 3.4 mph5.5 kmh 29.71 in1006.1 mb 0.00 in0.0 mm 0.00 in0.0 mm 0.00 in0.0 mm
02:20 AM 33.6°F0.9°C 30.7°F-0.7°C 89% 3.6 mph S5.8 kmh S 4.9 mph7.9 kmh 29.71 in1006.1 mb 0.00 in0.0 mm 0.00 in0.0 mm 0.00 in0.0 mm
02:30 AM 33.4°F0.8°C 30.5°F-0.8°C 89% 2.2 mph S3.5 kmh S 3.4 mph5.5 kmh 29.72 in1006.4 mb 0.00 in0.0 mm 0.00 in0.0 mm 0.00 in0.0 mm
02:40 AM 33.6°F0.9°C 30.7°F-0.7°C 89% 2.3 mph WSW3.7 kmh WSW 4.9 mph7.9 kmh 29.72 in1006.4 mb 0.00 in0.0 mm 0.00 in0.0 mm 0.00 in0.0 mm
02:50 AM 33.4°F0.8°C 30.5°F-0.8°C 89% 3.4 mph S5.5 kmh S 4.9 mph7.9 kmh 29.73 in1006.8 mb 0.00 in0.0 mm 0.00 in0.0 mm 0.00 in0.0 mm
03:00 AM 33.4°F0.8°C 30.5°F-0.8°C 89% 5.3 mph SSW8.5 kmh SSW 8.4 mph13.5 kmh 29.72 in1006.4 mb 0.00 in0.0 mm 0.00 in0.0 mm 0.00 in0.0 mm
03:10 AM 33.3°F0.7°C 30.4°F-0.9°C 89% 3.6 mph NW5.8 kmh NW 4.9 mph7.9 kmh 29.72 in1006.4 mb 0.00 in0.0 mm 0.00 in0.0 mm 0.00 in0.0 mm
03:20 AM 33.1°F0.6°C 30.2°F-1.0°C 89% 6.5 mph S10.5 kmh S 6.6 mph10.6 kmh 29.73 in1006.8 mb 0.00 in0.0 mm 0.00 in0.0 mm 0.00 in0.0 mm
03:30 AM 33.1°F0.6°C 30.2°F-1.0°C 89% 6.5 mph S10.5 kmh S 7.6 mph12.2 kmh 29.73 in1006.8 mb 0.00 in0.0 mm 0.00 in0.0 mm 0.00 in0.0 mm
03:40 AM 33.1°F0.6°C 30.2°F-1.0°C 89% 7.2 mph S11.6 kmh S 9.1 mph14.6 kmh 29.74 in1007.1 mb 0.00 in0.0 mm 0.00 in0.0 mm 0.00 in0.0 mm
03:50 AM 33.4°F0.8°C 30.5°F-0.8°C 89% 5.0 mph SSE8.0 kmh SSE 6.6 mph10.6 kmh 29.74 in1007.1 mb 0.00 in0.0 mm 0.00 in0.0 mm 0.00 in0.0 mm
04:00 AM 33.4°F0.8°C 30.5°F-0.8°C 89% 5.7 mph SSW9.2 kmh SSW 8.4 mph13.5 kmh 29.74 in1007.1 mb 0.00 in0.0 mm 0.00 in0.0 mm 0.00 in0.0 mm
04:10 AM 33.8°F1.0°C 30.9°F-0.6°C 89% 6.3 mph SSE10.1 kmh SSE 7.6 mph12.2 kmh 29.74 in1007.1 mb 0.00 in0.0 mm 0.00 in0.0 mm 0.00 in0.0 mm
04:20 AM 33.6°F0.9°C 30.7°F-0.7°C 89% 4.7 mph SSW7.6 kmh SSW 4.9 mph7.9 kmh 29.74 in1007.1 mb 0.00 in0.0 mm 0.00 in0.0 mm 0.00 in0.0 mm
04:30 AM 33.8°F1.0°C 31.2°F-0.4°C 90% 5.6 mph S9.0 kmh S 5.9 mph9.5 kmh 29.75 in1007.5 mb 0.00 in0.0 mm 0.00 in0.0 mm 0.00 in0.0 mm
04:40 AM 33.8°F1.0°C 31.2°F-0.4°C 90% 4.2 mph SW6.8 kmh SW 4.9 mph7.9 kmh 29.75 in1007.5 mb 0.00 in0.0 mm 0.00 in0.0 mm 0.00 in0.0 mm
04:50 AM 34.2°F1.2°C 31.5°F-0.3°C 90% 5.2 mph W8.4 kmh W 5.9 mph9.5 kmh 29.75 in1007.5 mb 0.00 in0.0 mm 0.00 in0.0 mm 0.00 in0.0 mm
05:00 AM 34.2°F1.2°C 31.5°F-0.3°C 90% 3.4 mph S5.5 kmh S 3.4 mph5.5 kmh 29.75 in1007.5 mb 0.00 in0.0 mm 0.00 in0.0 mm 0.00 in0.0 mm
05:10 AM 34.3°F1.3°C 31.7°F-0.2°C 90% 3.0 mph S4.8 kmh S 3.4 mph5.5 kmh 29.75 in1007.5 mb 0.00 in0.0 mm 0.00 in0.0 mm 0.00 in0.0 mm
05:20 AM 34.7°F1.5°C 32.1°F0.1°C 90% 3.1 mph SW5.0 kmh SW 3.4 mph5.5 kmh 29.76 in1007.8 mb 0.00 in0.0 mm 0.00 in0.0 mm 0.00 in0.0 mm
05:30 AM 34.9°F1.6°C 32.2°F0.1°C 90% 2.4 mph SW3.9 kmh SW 3.4 mph5.5 kmh 29.76 in1007.8 mb 0.00 in0.0 mm 0.00 in0.0 mm 0.00 in0.0 mm
05:40 AM 35.1°F1.7°C 32.4°F0.2°C 90% 2.2 mph SW3.5 kmh SW 3.4 mph5.5 kmh 29.77 in1008.1 mb 0.00 in0.0 mm 0.00 in0.0 mm 0.00 in0.0 mm
05:50 AM 35.2°F1.8°C 32.6°F0.3°C 90% 2.1 mph S3.4 kmh S 3.4 mph5.5 kmh 29.76 in1007.8 mb 0.00 in0.0 mm 0.00 in0.0 mm 0.00 in0.0 mm
06:00 AM 35.8°F2.1°C 33.1°F0.6°C 90% 4.8 mph S7.7 kmh S 5.9 mph9.5 kmh 29.76 in1007.8 mb 0.00 in0.0 mm 0.00 in0.0 mm 0.00 in0.0 mm
06:10 AM 36.3°F2.4°C 33.7°F0.9°C 90% 6.0 mph WSW9.7 kmh WSW 6.6 mph10.6 kmh 29.75 in1007.5 mb 0.00 in0.0 mm 0.00 in0.0 mm 0.00 in0.0 mm
06:20 AM 36.5°F2.5°C 33.8°F1.0°C 90% 8.4 mph SE13.5 kmh SE 11.8 mph19.0 kmh 29.76 in1007.8 mb 0.00 in0.0 mm 0.00 in0.0 mm 0.00 in0.0 mm
06:30 AM 36.7°F2.6°C 34.0°F1.1°C 90% 7.1 mph SSE11.4 kmh SSE 8.4 mph13.5 kmh 29.77 in1008.1 mb 0.00 in0.0 mm 0.00 in0.0 mm 0.00 in0.0 mm
06:40 AM 36.7°F2.6°C 34.0°F1.1°C 90% 4.2 mph SSW6.8 kmh SSW 5.9 mph9.5 kmh 29.78 in1008.5 mb 0.00 in0.0 mm 0.00 in0.0 mm 0.00 in0.0 mm
06:50 AM 36.7°F2.6°C 34.0°F1.1°C 90% 6.5 mph SE10.5 kmh SE 7.6 mph12.2 kmh 29.77 in1008.1 mb 0.00 in0.0 mm 0.00 in0.0 mm 0.00 in0.0 mm
07:00 AM 36.7°F2.6°C 34.0°F1.1°C 90% 4.6 mph S7.4 kmh S 6.6 mph10.6 kmh 29.77 in1008.1 mb 0.00 in0.0 mm 0.00 in0.0 mm 0.00 in0.0 mm
07:10 AM 36.7°F2.6°C 34.0°F1.1°C 90% 6.5 mph SSE10.5 kmh SSE 6.6 mph10.6 kmh 29.78 in1008.5 mb 0.00 in0.0 mm 0.00 in0.0 mm 0.00 in0.0 mm
07:20 AM 36.7°F2.6°C 34.0°F1.1°C 90% 5.8 mph S9.3 kmh S 6.6 mph10.6 kmh 29.78 in1008.5 mb 0.00 in0.0 mm 0.00 in0.0 mm 0.00 in0.0 mm
07:30 AM 36.9°F2.7°C 34.2°F1.2°C 90% 6.4 mph SSW10.3 kmh SSW 7.6 mph12.2 kmh 29.78 in1008.5 mb 0.00 in0.0 mm 0.00 in0.0 mm 0.00 in0.0 mm
07:40 AM 37.0°F2.8°C 34.7°F1.5°C 91% 8.3 mph S13.4 kmh S 9.1 mph14.6 kmh 29.78 in1008.5 mb 0.00 in0.0 mm 0.00 in0.0 mm 0.00 in0.0 mm
07:50 AM 37.2°F2.9°C 34.8°F1.6°C 91% 6.1 mph SSE9.8 kmh SSE 6.6 mph10.6 kmh 29.78 in1008.5 mb 0.00 in0.0 mm 0.00 in0.0 mm 0.00 in0.0 mm
08:00 AM 37.4°F3.0°C 35.0°F1.7°C 91% 6.7 mph S10.8 kmh S 7.6 mph12.2 kmh 29.78 in1008.5 mb 0.01 in0.3 mm 0.01 in0.3 mm 0.01 in0.3 mm
08:10 AM 37.6°F3.1°C 35.2°F1.8°C 91% 7.5 mph S12.1 kmh S 9.1 mph14.6 kmh 29.79 in1008.8 mb 0.01 in0.3 mm 0.00 in0.0 mm 0.01 in0.3 mm
08:20 AM 37.9°F3.3°C 35.5°F1.9°C 91% 7.6 mph S12.2 kmh S 8.4 mph13.5 kmh 29.79 in1008.8 mb 0.01 in0.3 mm 0.00 in0.0 mm 0.01 in0.3 mm
08:30 AM 37.9°F3.3°C 35.5°F1.9°C 91% 9.9 mph S15.9 kmh S 11.8 mph19.0 kmh 29.79 in1008.8 mb 0.01 in0.3 mm 0.00 in0.0 mm 0.01 in0.3 mm
08:40 AM 37.9°F3.3°C 35.5°F1.9°C 91% 11.3 mph S18.2 kmh S 13.3 mph21.4 kmh 29.80 in1009.1 mb 0.01 in0.3 mm 0.00 in0.0 mm 0.01 in0.3 mm
08:50 AM 37.9°F3.3°C 35.5°F1.9°C 91% 9.3 mph S15.0 kmh S 13.3 mph21.4 kmh 29.80 in1009.1 mb 0.01 in0.3 mm 0.00 in0.0 mm 0.01 in0.3 mm
09:00 AM 38.3°F3.5°C 35.9°F2.2°C 91% 8.2 mph SSE13.2 kmh SSE 8.4 mph13.5 kmh 29.80 in1009.1 mb 0.00 in0.0 mm 0.00 in0.0 mm 0.01 in0.3 mm
09:10 AM 38.5°F3.6°C 36.1°F2.3°C 91% 9.7 mph S15.6 kmh S 8.4 mph13.5 kmh 29.80 in1009.1 mb 0.00 in0.0 mm 0.00 in0.0 mm 0.01 in0.3 mm
09:20 AM 38.5°F3.6°C 36.1°F2.3°C 91% 7.2 mph SE11.6 kmh SE 8.4 mph13.5 kmh 29.80 in1009.1 mb 0.00 in0.0 mm 0.00 in0.0 mm 0.01 in0.3 mm
09:30 AM 38.8°F3.8°C 36.4°F2.4°C 91% 6.1 mph SSE9.8 kmh SSE 6.6 mph10.6 kmh 29.80 in1009.1 mb 0.00 in0.0 mm 0.00 in0.0 mm 0.01 in0.3 mm
09:40 AM 39.0°F3.9°C 36.6°F2.6°C 91% 7.8 mph S12.6 kmh S 8.4 mph13.5 kmh 29.80 in1009.1 mb 0.00 in0.0 mm 0.00 in0.0 mm 0.01 in0.3 mm
09:50 AM 39.2°F4.0°C 36.8°F2.7°C 91% 9.6 mph SSE15.4 kmh SSE 11.8 mph19.0 kmh 29.80 in1009.1 mb 0.00 in0.0 mm 0.00 in0.0 mm 0.01 in0.3 mm
10:00 AM 39.4°F4.1°C 37.0°F2.8°C 91% 8.9 mph S14.3 kmh S 10.1 mph16.3 kmh 29.81 in1009.5 mb 0.00 in0.0 mm 0.00 in0.0 mm 0.01 in0.3 mm
10:10 AM 39.6°F4.2°C 37.2°F2.9°C 91% 7.8 mph SSW12.6 kmh SSW 7.6 mph12.2 kmh 29.80 in1009.1 mb 0.00 in0.0 mm 0.00 in0.0 mm 0.01 in0.3 mm
10:20 AM 39.7°F4.3°C 37.6°F3.1°C 92% 7.8 mph S12.6 kmh S 10.1 mph16.3 kmh 29.80 in1009.1 mb 0.00 in0.0 mm 0.00 in0.0 mm 0.01 in0.3 mm
10:30 AM 39.7°F4.3°C 37.6°F3.1°C 92% 6.9 mph SSE11.1 kmh SSE 9.1 mph14.6 kmh 29.80 in1009.1 mb 0.00 in0.0 mm 0.00 in0.0 mm 0.01 in0.3 mm
10:40 AM 39.9°F4.4°C 37.8°F3.2°C 92% 6.6 mph ESE10.6 kmh ESE 8.4 mph13.5 kmh 29.81 in1009.5 mb 0.00 in0.0 mm 0.00 in0.0 mm 0.01 in0.3 mm
10:50 AM 39.9°F4.4°C 37.8°F3.2°C 92% 7.0 mph SSE11.3 kmh SSE 8.4 mph13.5 kmh 29.80 in1009.1 mb 0.00 in0.0 mm 0.00 in0.0 mm 0.01 in0.3 mm
11:00 AM 40.1°F4.5°C 38.0°F3.3°C 92% 7.2 mph S11.6 kmh S 7.6 mph12.2 kmh 29.80 in1009.1 mb 0.00 in0.0 mm 0.00 in0.0 mm 0.01 in0.3 mm
11:10 AM 40.3°F4.6°C 38.1°F3.4°C 92% 6.3 mph SE10.1 kmh SE 5.9 mph9.5 kmh 29.80 in1009.1 mb 0.00 in0.0 mm 0.00 in0.0 mm 0.01 in0.3 mm
11:20 AM 40.3°F4.6°C 38.1°F3.4°C 92% 4.8 mph SE7.7 kmh SE 6.6 mph10.6 kmh 29.78 in1008.5 mb 0.00 in0.0 mm 0.00 in0.0 mm 0.01 in0.3 mm
11:30 AM 40.5°F4.7°C 38.3°F3.5°C 92% 4.0 mph SSE6.4 kmh SSE 4.9 mph7.9 kmh 29.79 in1008.8 mb 0.00 in0.0 mm 0.00 in0.0 mm 0.01 in0.3 mm
11:40 AM 40.6°F4.8°C 38.5°F3.6°C 92% 5.4 mph S8.7 kmh S 5.9 mph9.5 kmh 29.79 in1008.8 mb 0.00 in0.0 mm 0.00 in0.0 mm 0.01 in0.3 mm
11:50 AM 40.8°F4.9°C 38.7°F3.7°C 92% 3.9 mph SE6.3 kmh SE 7.6 mph12.2 kmh 29.79 in1008.8 mb 0.00 in0.0 mm 0.00 in0.0 mm 0.01 in0.3 mm
12:00 PM 40.8°F4.9°C 38.7°F3.7°C 92% 4.4 mph SSW7.1 kmh SSW 5.9 mph9.5 kmh 29.79 in1008.8 mb 0.00 in0.0 mm 0.00 in0.0 mm 0.01 in0.3 mm
12:10 PM 41.0°F5.0°C 38.9°F3.8°C 92% 6.8 mph SE10.9 kmh SE 8.4 mph13.5 kmh 29.80 in1009.1 mb 0.00 in0.0 mm 0.00 in0.0 mm 0.01 in0.3 mm
12:20 PM 41.4°F5.2°C 39.2°F4.0°C 92% 8.3 mph SE13.4 kmh SE 10.8 mph17.4 kmh 29.79 in1008.8 mb 0.00 in0.0 mm 0.00 in0.0 mm 0.01 in0.3 mm
12:30 PM 41.5°F5.3°C 39.4°F4.1°C 92% 6.7 mph SE10.8 kmh SE 7.6 mph12.2 kmh 29.78 in1008.5 mb 0.00 in0.0 mm 0.00 in0.0 mm 0.01 in0.3 mm
12:40 PM 41.7°F5.4°C 39.6°F4.2°C 92% 5.5 mph SSE8.9 kmh SSE 10.8 mph17.4 kmh 29.78 in1008.5 mb 0.00 in0.0 mm 0.00 in0.0 mm 0.01 in0.3 mm
12:50 PM 41.9°F5.5°C 39.7°F4.3°C 92% 6.7 mph SE10.8 kmh SE 7.6 mph12.2 kmh 29.78 in1008.5 mb 0.00 in0.0 mm 0.00 in0.0 mm 0.01 in0.3 mm
01:00 PM 42.3°F5.7°C 40.4°F4.7°C 93% 6.4 mph S10.3 kmh S 10.1 mph16.3 kmh 29.77 in1008.1 mb 0.00 in0.0 mm 0.00 in0.0 mm 0.01 in0.3 mm
01:10 PM 42.4°F5.8°C 40.6°F4.8°C 93% 6.6 mph S10.6 kmh S 10.8 mph17.4 kmh 29.76 in1007.8 mb 0.00 in0.0 mm 0.00 in0.0 mm 0.01 in0.3 mm
01:20 PM 42.6°F5.9°C 40.7°F4.8°C 93% 7.1 mph S11.4 kmh S 8.4 mph13.5 kmh 29.76 in1007.8 mb 0.00 in0.0 mm 0.00 in0.0 mm 0.01 in0.3 mm
01:30 PM 43.0°F6.1°C 41.1°F5.1°C 93% 6.1 mph ESE9.8 kmh ESE 7.6 mph12.2 kmh 29.75 in1007.5 mb 0.00 in0.0 mm 0.00 in0.0 mm 0.01 in0.3 mm
01:40 PM 43.3°F6.3°C 41.5°F5.3°C 93% 5.8 mph SSE9.3 kmh SSE 8.4 mph13.5 kmh 29.75 in1007.5 mb 0.00 in0.0 mm 0.00 in0.0 mm 0.01 in0.3 mm
01:50 PM 43.5°F6.4°C 41.6°F5.3°C 93% 6.8 mph SSE10.9 kmh SSE 7.6 mph12.2 kmh 29.75 in1007.5 mb 0.00 in0.0 mm 0.00 in0.0 mm 0.01 in0.3 mm
02:00 PM 43.9°F6.6°C 42.0°F5.6°C 93% 6.9 mph SSW11.1 kmh SSW 11.8 mph19.0 kmh 29.74 in1007.1 mb 0.00 in0.0 mm 0.00 in0.0 mm 0.01 in0.3 mm
02:10 PM 44.2°F6.8°C 42.3°F5.7°C 93% 8.7 mph SE14.0 kmh SE 9.1 mph14.6 kmh 29.74 in1007.1 mb 0.00 in0.0 mm 0.00 in0.0 mm 0.01 in0.3 mm
02:20 PM 44.2°F6.8°C 42.3°F5.7°C 93% 7.0 mph SSE11.3 kmh SSE 8.4 mph13.5 kmh 29.74 in1007.1 mb 0.00 in0.0 mm 0.00 in0.0 mm 0.01 in0.3 mm
02:30 PM 44.4°F6.9°C 42.5°F5.8°C 93% 6.8 mph SE10.9 kmh SE 8.4 mph13.5 kmh 29.74 in1007.1 mb 0.00 in0.0 mm 0.00 in0.0 mm 0.01 in0.3 mm
02:40 PM 44.2°F6.8°C 42.3°F5.7°C 93% 7.7 mph SSW12.4 kmh SSW 12.5 mph20.1 kmh 29.74 in1007.1 mb 0.00 in0.0 mm 0.00 in0.0 mm 0.01 in0.3 mm
02:50 PM 44.2°F6.8°C 42.3°F5.7°C 93% 6.8 mph SE10.9 kmh SE 12.5 mph20.1 kmh 29.73 in1006.8 mb 0.00 in0.0 mm 0.00 in0.0 mm 0.01 in0.3 mm
03:00 PM 44.2°F6.8°C 42.3°F5.7°C 93% 3.8 mph ENE6.1 kmh ENE 7.6 mph12.2 kmh 29.73 in1006.8 mb 0.00 in0.0 mm 0.00 in0.0 mm 0.01 in0.3 mm
03:10 PM 44.2°F6.8°C 42.3°F5.7°C 93% 3.3 mph NNW5.3 kmh NNW 8.4 mph13.5 kmh 29.72 in1006.4 mb 0.00 in0.0 mm 0.00 in0.0 mm 0.01 in0.3 mm
03:20 PM 44.2°F6.8°C 42.3°F5.7°C 93% 5.8 mph SSW9.3 kmh SSW 10.8 mph17.4 kmh 29.71 in1006.1 mb 0.00 in0.0 mm 0.00 in0.0 mm 0.01 in0.3 mm
03:30 PM 44.2°F6.8°C 42.3°F5.7°C 93% 5.6 mph S9.0 kmh S 6.6 mph10.6 kmh 29.72 in1006.4 mb 0.00 in0.0 mm 0.00 in0.0 mm 0.01 in0.3 mm
03:40 PM 44.1°F6.7°C 42.2°F5.7°C 93% 5.0 mph E8.0 kmh E 8.4 mph13.5 kmh 29.71 in1006.1 mb 0.00 in0.0 mm 0.00 in0.0 mm 0.01 in0.3 mm
03:50 PM 44.1°F6.7°C 42.2°F5.7°C 93% 3.7 mph SE6.0 kmh SE 6.6 mph10.6 kmh 29.71 in1006.1 mb 0.00 in0.0 mm 0.00 in0.0 mm 0.01 in0.3 mm
04:00 PM 44.1°F6.7°C 42.2°F5.7°C 93% 7.4 mph WSW11.9 kmh WSW 10.8 mph17.4 kmh 29.70 in1005.8 mb 0.00 in0.0 mm 0.00 in0.0 mm 0.01 in0.3 mm
04:10 PM 44.2°F6.8°C 42.3°F5.7°C 93% 6.9 mph SE11.1 kmh SE 8.4 mph13.5 kmh 29.70 in1005.8 mb 0.00 in0.0 mm 0.00 in0.0 mm 0.01 in0.3 mm
04:20 PM 44.2°F6.8°C 42.3°F5.7°C 93% 8.9 mph S14.3 kmh S 13.3 mph21.4 kmh 29.69 in1005.4 mb 0.00 in0.0 mm 0.00 in0.0 mm 0.01 in0.3 mm
04:30 PM 44.1°F6.7°C 42.2°F5.7°C 93% 6.5 mph E10.5 kmh E 6.6 mph10.6 kmh 29.68 in1005.1 mb 0.00 in0.0 mm 0.00 in0.0 mm 0.01 in0.3 mm
04:40 PM 44.1°F6.7°C 41.9°F5.5°C 92% 6.3 mph SE10.1 kmh SE 10.1 mph16.3 kmh 29.69 in1005.4 mb 0.00 in0.0 mm 0.00 in0.0 mm 0.01 in0.3 mm
04:50 PM 44.1°F6.7°C 41.9°F5.5°C 92% 4.2 mph SE6.8 kmh SE 9.1 mph14.6 kmh 29.69 in1005.4 mb 0.00 in0.0 mm 0.00 in0.0 mm 0.01 in0.3 mm
05:00 PM 44.2°F6.8°C 42.1°F5.6°C 92% 8.3 mph ESE13.4 kmh ESE 12.5 mph20.1 kmh 29.69 in1005.4 mb 0.00 in0.0 mm 0.00 in0.0 mm 0.01 in0.3 mm
05:10 PM 44.2°F6.8°C 42.1°F5.6°C 92% 6.5 mph S10.5 kmh S 16.0 mph25.7 kmh 29.69 in1005.4 mb 0.00 in0.0 mm 0.00 in0.0 mm 0.01 in0.3 mm
05:20 PM 44.4°F6.9°C 42.2°F5.7°C 92% 10.6 mph NE17.1 kmh NE 15.0 mph24.1 kmh 29.69 in1005.4 mb 0.00 in0.0 mm 0.00 in0.0 mm 0.01 in0.3 mm
05:30 PM 44.6°F7.0°C 40.7°F4.8°C 86% 7.9 mph SE12.7 kmh SE 10.1 mph16.3 kmh 29.68 in1005.1 mb 0.00 in0.0 mm 0.00 in0.0 mm 0.01 in0.3 mm
05:40 PM 44.6°F7.0°C 40.7°F4.8°C 86% 8.2 mph S13.2 kmh S 9.1 mph14.6 kmh 29.67 in1004.7 mb 0.00 in0.0 mm 0.00 in0.0 mm 0.01 in0.3 mm
05:50 PM 44.6°F7.0°C 40.4°F4.7°C 85% 9.0 mph ESE14.5 kmh ESE 11.8 mph19.0 kmh 29.66 in1004.4 mb 0.00 in0.0 mm 0.00 in0.0 mm 0.01 in0.3 mm
06:00 PM 44.6°F7.0°C 40.1°F4.5°C 84% 6.7 mph SW10.8 kmh SW 10.1 mph16.3 kmh 29.67 in1004.7 mb 0.00 in0.0 mm 0.00 in0.0 mm 0.01 in0.3 mm
06:10 PM 44.6°F7.0°C 40.1°F4.5°C 84% 7.7 mph E12.4 kmh E 13.3 mph21.4 kmh 29.66 in1004.4 mb 0.00 in0.0 mm 0.00 in0.0 mm 0.01 in0.3 mm
06:20 PM 44.6°F7.0°C 39.8°F4.3°C 83% 7.4 mph SE11.9 kmh SE 11.8 mph19.0 kmh 29.66 in1004.4 mb 0.00 in0.0 mm 0.00 in0.0 mm 0.01 in0.3 mm
06:30 PM 44.6°F7.0°C 39.4°F4.1°C 82% 9.7 mph SE15.6 kmh SE 13.3 mph21.4 kmh 29.65 in1004.1 mb 0.00 in0.0 mm 0.00 in0.0 mm 0.01 in0.3 mm
06:40 PM 44.6°F7.0°C 39.4°F4.1°C 82% 7.3 mph S11.7 kmh S 10.8 mph17.4 kmh 29.65 in1004.1 mb 0.00 in0.0 mm 0.00 in0.0 mm 0.01 in0.3 mm
06:50 PM 44.6°F7.0°C 39.1°F3.9°C 81% 8.2 mph E13.2 kmh E 10.8 mph17.4 kmh 29.65 in1004.1 mb 0.00 in0.0 mm 0.00 in0.0 mm 0.01 in0.3 mm
07:00 PM 44.6°F7.0°C 39.1°F3.9°C 81% 6.3 mph SSE10.1 kmh SSE 10.8 mph17.4 kmh 29.64 in1003.7 mb 0.00 in0.0 mm 0.00 in0.0 mm 0.01 in0.3 mm
07:10 PM 44.6°F7.0°C 38.8°F3.8°C 80% 6.9 mph SE11.1 kmh SE 7.6 mph12.2 kmh 29.64 in1003.7 mb 0.00 in0.0 mm 0.00 in0.0 mm 0.01 in0.3 mm
07:20 PM 44.8°F7.1°C 39.0°F3.9°C 80% 9.9 mph SE15.9 kmh SE 13.3 mph21.4 kmh 29.63 in1003.4 mb 0.00 in0.0 mm 0.00 in0.0 mm 0.01 in0.3 mm
07:30 PM 45.0°F7.2°C 39.2°F4.0°C 80% 8.0 mph ESE12.9 kmh ESE 14.3 mph23.0 kmh 29.62 in1003.0 mb 0.00 in0.0 mm 0.00 in0.0 mm 0.01 in0.3 mm
07:40 PM 45.1°F7.3°C 39.0°F3.9°C 79% 9.5 mph NE15.3 kmh NE 16.0 mph25.7 kmh 29.62 in1003.0 mb 0.00 in0.0 mm 0.00 in0.0 mm 0.01 in0.3 mm
07:50 PM 45.3°F7.4°C 38.9°F3.8°C 78% 9.5 mph SE15.3 kmh SE 14.3 mph23.0 kmh 29.63 in1003.4 mb 0.00 in0.0 mm 0.00 in0.0 mm 0.01 in0.3 mm
08:00 PM 45.5°F7.5°C 39.0°F3.9°C 78% 12.1 mph S19.5 kmh S 16.7 mph26.9 kmh 29.63 in1003.4 mb 0.00 in0.0 mm 0.00 in0.0 mm 0.01 in0.3 mm
08:10 PM 45.3°F7.4°C 39.2°F4.0°C 79% 11.4 mph SE18.3 kmh SE 15.0 mph24.1 kmh 29.62 in1003.0 mb 0.00 in0.0 mm 0.00 in0.0 mm 0.01 in0.3 mm
08:20 PM 45.3°F7.4°C 39.5°F4.2°C 80% 11.2 mph S18.0 kmh S 17.5 mph28.2 kmh 29.61 in1002.7 mb 0.00 in0.0 mm 0.00 in0.0 mm 0.01 in0.3 mm
08:30 PM 45.3°F7.4°C 39.5°F4.2°C 80% 11.4 mph S18.3 kmh S 16.7 mph26.9 kmh 29.60 in1002.4 mb 0.00 in0.0 mm 0.00 in0.0 mm 0.01 in0.3 mm
08:40 PM 45.3°F7.4°C 39.8°F4.3°C 81% 11.4 mph SE18.3 kmh SE 16.7 mph26.9 kmh 29.60 in1002.4 mb 0.00 in0.0 mm 0.00 in0.0 mm 0.01 in0.3 mm
08:50 PM 45.3°F7.4°C 39.8°F4.3°C 81% 7.8 mph SSE12.6 kmh SSE 9.1 mph14.6 kmh 29.59 in1002.0 mb 0.01 in0.3 mm 0.06 in1.5 mm 0.02 in0.5 mm
09:00 PM 45.3°F7.4°C 40.1°F4.5°C 82% 10.6 mph S17.1 kmh S 14.3 mph23.0 kmh 29.59 in1002.0 mb 0.01 in0.3 mm 0.00 in0.0 mm 0.02 in0.5 mm
09:10 PM 45.3°F7.4°C 40.1°F4.5°C 82% 9.2 mph ESE14.8 kmh ESE 12.5 mph20.1 kmh 29.58 in1001.7 mb 0.01 in0.3 mm 0.00 in0.0 mm 0.02 in0.5 mm
09:20 PM 45.5°F7.5°C 40.6°F4.8°C 83% 10.4 mph SSE16.7 kmh SSE 14.3 mph23.0 kmh 29.57 in1001.4 mb 0.01 in0.3 mm 0.00 in0.0 mm 0.02 in0.5 mm
09:30 PM 45.5°F7.5°C 40.6°F4.8°C 83% 9.6 mph SE15.4 kmh SE 12.5 mph20.1 kmh 29.56 in1001.0 mb 0.01 in0.3 mm 0.00 in0.0 mm 0.02 in0.5 mm
09:40 PM 45.7°F7.6°C 40.8°F4.9°C 83% 9.7 mph SE15.6 kmh SE 13.3 mph21.4 kmh 29.56 in1001.0 mb 0.01 in0.3 mm 0.00 in0.0 mm 0.02 in0.5 mm
09:50 PM 45.7°F7.6°C 40.8°F4.9°C 83% 10.1 mph SSW16.3 kmh SSW 14.3 mph23.0 kmh 29.55 in1000.7 mb 0.01 in0.3 mm 0.00 in0.0 mm 0.04 in1.0 mm
10:00 PM 45.9°F7.7°C 41.3°F5.2°C 84% 12.7 mph SE20.4 kmh SE 12.5 mph20.1 kmh 29.56 in1001.0 mb 0.01 in0.3 mm 0.00 in0.0 mm 0.04 in1.0 mm
10:10 PM 45.9°F7.7°C 41.3°F5.2°C 84% 11.2 mph SE18.0 kmh SE 13.3 mph21.4 kmh 29.56 in1001.0 mb 0.01 in0.3 mm 0.00 in0.0 mm 0.04 in1.0 mm
10:20 PM 46.2°F7.9°C 41.7°F5.4°C 84% 11.1 mph SSE17.9 kmh SSE 13.3 mph21.4 kmh 29.55 in1000.7 mb 0.01 in0.3 mm 0.00 in0.0 mm 0.04 in1.0 mm
10:30 PM 46.2°F7.9°C 41.7°F5.4°C 84% 12.9 mph S20.8 kmh S 13.3 mph21.4 kmh 29.55 in1000.7 mb 0.01 in0.3 mm 0.00 in0.0 mm 0.04 in1.0 mm
10:40 PM 46.4°F8.0°C 41.8°F5.4°C 84% 10.2 mph SSE16.4 kmh SSE 19.2 mph30.9 kmh 29.55 in1000.7 mb 0.01 in0.3 mm 0.00 in0.0 mm 0.04 in1.0 mm
10:50 PM 46.6°F8.1°C 42.0°F5.6°C 84% 14.8 mph SSE23.8 kmh SSE 16.0 mph25.7 kmh 29.55 in1000.7 mb 0.00 in0.0 mm 0.00 in0.0 mm 0.04 in1.0 mm
11:00 PM 46.8°F8.2°C 42.2°F5.7°C 84% 14.7 mph SE23.7 kmh SE 16.0 mph25.7 kmh 29.55 in1000.7 mb 0.00 in0.0 mm 0.00 in0.0 mm 0.04 in1.0 mm
11:10 PM 46.9°F8.3°C 42.4°F5.8°C 84% 14.3 mph S23.0 kmh S 17.5 mph28.2 kmh 29.55 in1000.7 mb 0.00 in0.0 mm 0.00 in0.0 mm 0.04 in1.0 mm
11:20 PM 47.1°F8.4°C 42.2°F5.7°C 83% 18.3 mph SSE29.5 kmh SSE 17.5 mph28.2 kmh 29.55 in1000.7 mb 0.00 in0.0 mm 0.00 in0.0 mm 0.04 in1.0 mm
11:30 PM 47.3°F8.5°C 42.4°F5.8°C 83% 18.1 mph S29.1 kmh S 19.2 mph30.9 kmh 29.54 in1000.3 mb 0.00 in0.0 mm 0.00 in0.0 mm 0.04 in1.0 mm
11:40 PM 47.5°F8.6°C 42.6°F5.9°C 83% 19.5 mph S31.4 kmh S 18.5 mph29.8 kmh 29.55 in1000.7 mb 0.00 in0.0 mm 0.00 in0.0 mm 0.04 in1.0 mm
11:50 PM 47.7°F8.7°C 42.4°F5.8°C 82% 18.4 mph SSE29.6 kmh SSE 17.5 mph28.2 kmh 29.55 in1000.7 mb 0.00 in0.0 mm 0.00 in0.0 mm 0.04 in1.0 mm